createdAt,value
2024-04-15T00:00:21.479Z,18.09
2024-04-15T00:03:08.271Z,18.03
2024-04-15T00:05:37.034Z,17.95
2024-04-15T00:08:04.332Z,17.84
2024-04-15T00:10:31.154Z,17.62
2024-04-15T00:12:58.022Z,17.43
2024-04-15T00:15:25.051Z,17.28
2024-04-15T00:17:52.200Z,17.16
2024-04-15T00:20:18.998Z,17.05
2024-04-15T00:22:45.956Z,17.01
2024-04-15T00:25:13.898Z,16.98
2024-04-15T00:27:40.849Z,16.94
2024-04-15T00:30:08.565Z,16.90
2024-04-15T00:32:35.305Z,16.83
2024-04-15T00:35:02.072Z,16.79
2024-04-15T00:37:28.895Z,16.77
2024-04-15T00:39:55.926Z,16.72
2024-04-15T00:42:23.338Z,16.67
2024-04-15T00:44:51.149Z,16.65
2024-04-15T00:47:18.266Z,16.64
2024-04-15T00:49:45.152Z,16.64
2024-04-15T00:52:12.500Z,16.64
2024-04-15T00:54:39.946Z,16.63
2024-04-15T00:57:06.701Z,16.59
2024-04-15T00:59:34.228Z,16.54
2024-04-15T01:02:01.257Z,16.49
2024-04-15T01:04:28.178Z,16.33
2024-04-15T01:06:55.102Z,16.07
2024-04-15T01:09:23.643Z,15.96
2024-04-15T01:11:50.373Z,15.95
2024-04-15T01:14:17.010Z,15.94
2024-04-15T01:16:43.743Z,15.94
2024-04-15T01:19:10.504Z,15.92
2024-04-15T01:21:37.279Z,15.90
2024-04-15T01:24:04.383Z,15.87
2024-04-15T01:26:31.886Z,15.83
2024-04-15T01:28:58.753Z,15.80
2024-04-15T01:31:25.700Z,15.73
2024-04-15T01:33:52.544Z,15.46
2024-04-15T01:36:19.318Z,15.31
2024-04-15T01:38:46.101Z,15.28
2024-04-15T01:41:12.787Z,15.13
2024-04-15T01:43:39.651Z,14.97
2024-04-15T01:46:06.416Z,14.93
2024-04-15T01:48:33.281Z,14.88
2024-04-15T01:51:00.112Z,14.83
2024-04-15T01:53:26.905Z,14.67
2024-04-15T01:55:53.700Z,14.54
2024-04-15T01:58:20.475Z,14.39
2024-04-15T02:00:47.346Z,14.29
2024-04-15T02:03:14.261Z,14.23
2024-04-15T02:05:41.093Z,14.19
2024-04-15T02:08:07.944Z,14.22
2024-04-15T02:10:34.829Z,14.26
2024-04-15T02:13:01.693Z,14.28
2024-04-15T02:15:28.334Z,14.28
2024-04-15T02:17:55.123Z,14.27
2024-04-15T02:20:22.051Z,14.27
2024-04-15T02:22:48.779Z,14.27
2024-04-15T02:25:15.637Z,14.25
2024-04-15T02:27:42.403Z,14.22
2024-04-15T02:30:09.410Z,14.18
2024-04-15T02:32:36.365Z,14.16
2024-04-15T02:35:03.326Z,14.13
2024-04-15T02:37:30.117Z,14.12
2024-04-15T02:39:56.977Z,14.09
2024-04-15T02:42:23.804Z,14.04
2024-04-15T02:44:50.515Z,13.98
2024-04-15T02:47:17.732Z,13.82
2024-04-15T02:49:44.549Z,13.69
2024-04-15T02:52:11.535Z,13.59
2024-04-15T02:54:38.288Z,13.57
2024-04-15T02:57:04.991Z,13.57
2024-04-15T02:59:31.748Z,13.57
2024-04-15T03:01:58.821Z,13.52
2024-04-15T03:04:25.736Z,13.43
2024-04-15T03:06:52.948Z,13.36
2024-04-15T03:09:21.584Z,13.25
2024-04-15T03:11:48.683Z,13.14
2024-04-15T03:14:15.372Z,13.05
2024-04-15T03:16:45.581Z,13.02
2024-04-15T03:19:12.278Z,13.01
2024-04-15T03:21:39.087Z,12.97
2024-04-15T03:24:06.189Z,12.94
2024-04-15T03:26:32.897Z,12.95
2024-04-15T03:28:59.589Z,13.00
2024-04-15T03:31:26.377Z,13.06
2024-04-15T03:33:53.137Z,13.10
2024-04-15T03:36:19.940Z,13.14
2024-04-15T03:38:46.763Z,13.16
2024-04-15T03:41:13.514Z,13.18
2024-04-15T03:43:40.260Z,13.19
2024-04-15T03:46:07.127Z,13.20
2024-04-15T03:48:33.947Z,13.19
2024-04-15T03:51:00.916Z,13.18
2024-04-15T03:53:27.765Z,13.16
2024-04-15T03:55:54.908Z,13.12
2024-04-15T03:58:21.903Z,13.12
2024-04-15T04:00:49.506Z,13.13
2024-04-15T04:03:16.563Z,13.10
2024-04-15T04:05:43.422Z,13.08
2024-04-15T04:08:10.288Z,13.09
2024-04-15T04:10:38.025Z,13.09
2024-04-15T04:13:05.182Z,13.09
2024-04-15T04:15:37.724Z,13.06
2024-04-15T04:18:05.559Z,13.02
2024-04-15T04:20:32.609Z,13.04
2024-04-15T04:22:59.734Z,13.08
2024-04-15T04:25:26.498Z,13.12
2024-04-15T04:27:54.180Z,13.19
2024-04-15T04:30:21.632Z,13.28
2024-04-15T04:32:48.451Z,13.32
2024-04-15T04:35:15.440Z,13.29
2024-04-15T04:37:43.022Z,13.30
2024-04-15T04:40:09.889Z,13.33
2024-04-15T04:42:36.718Z,13.30
2024-04-15T04:45:03.833Z,13.32
2024-04-15T04:47:31.829Z,13.44
2024-04-15T04:49:58.841Z,13.53
2024-04-15T04:52:25.683Z,13.59
2024-04-15T04:54:52.447Z,13.67
2024-04-15T04:57:19.268Z,13.78
2024-04-15T04:59:46.100Z,13.88
2024-04-15T05:02:12.914Z,13.98
2024-04-15T05:04:39.723Z,14.07
2024-04-15T05:07:06.524Z,14.13
2024-04-15T05:09:33.405Z,14.19
2024-04-15T05:12:00.255Z,14.31
2024-04-15T05:14:26.993Z,14.39
2024-04-15T05:16:53.803Z,14.45
2024-04-15T05:19:20.658Z,14.47
2024-04-15T05:21:47.646Z,14.54
2024-04-15T05:24:14.881Z,14.60
2024-04-15T05:26:41.693Z,14.68
2024-04-15T05:29:08.460Z,14.78
2024-04-15T05:31:35.189Z,14.88
2024-04-15T05:34:02.214Z,14.96
2024-04-15T05:36:29.026Z,15.03
2024-04-15T05:38:55.777Z,15.15
2024-04-15T05:41:22.457Z,15.26
2024-04-15T05:43:49.323Z,15.39
2024-04-15T05:46:17.158Z,15.53
2024-04-15T05:48:43.943Z,15.66
2024-04-15T05:51:13.068Z,15.78
2024-04-15T05:53:39.820Z,15.87
2024-04-15T05:56:06.729Z,15.97
2024-04-15T05:58:33.494Z,16.06
2024-04-15T06:01:00.282Z,16.21
2024-04-15T06:03:27.610Z,16.36
2024-04-15T06:05:54.506Z,16.45
2024-04-15T06:08:21.864Z,16.61
2024-04-15T06:10:48.985Z,16.81
2024-04-15T06:13:15.862Z,17.08
2024-04-15T06:15:42.644Z,17.31
2024-04-15T06:18:09.537Z,17.49
2024-04-15T06:20:36.420Z,17.63
2024-04-15T06:23:03.441Z,17.76
2024-04-15T06:25:30.209Z,17.92
2024-04-15T06:27:57.310Z,18.09
2024-04-15T06:30:24.246Z,18.35
2024-04-15T06:32:51.143Z,18.67
2024-04-15T06:35:17.975Z,18.99
2024-04-15T06:37:44.716Z,19.33
2024-04-15T06:40:11.453Z,19.69
2024-04-15T06:42:38.339Z,20.10
2024-04-15T06:45:05.404Z,20.48
2024-04-15T06:47:32.220Z,20.95
2024-04-15T06:49:59.074Z,21.43
2024-04-15T06:52:27.201Z,21.79
2024-04-15T06:54:54.433Z,22.06
2024-04-15T06:57:21.147Z,22.37
2024-04-15T06:59:47.905Z,22.74
2024-04-15T07:02:20.185Z,23.20
2024-04-15T07:04:54.060Z,23.72
2024-04-15T07:07:24.507Z,24.15
2024-04-15T07:09:53.451Z,24.34
2024-04-15T07:12:21.662Z,24.59
2024-04-15T07:14:48.605Z,24.77
2024-04-15T07:17:15.586Z,24.97
2024-04-15T07:19:42.482Z,25.11
2024-04-15T07:22:09.571Z,25.20
2024-04-15T07:24:36.863Z,25.45
2024-04-15T07:27:04.583Z,25.55
2024-04-15T07:29:31.422Z,25.52
2024-04-15T07:31:58.279Z,25.56
2024-04-15T07:34:25.136Z,25.55
2024-04-15T07:36:54.323Z,25.44
2024-04-15T07:39:21.058Z,25.37
2024-04-15T07:41:47.787Z,25.50
2024-04-15T07:44:14.638Z,25.67
2024-04-15T07:46:41.436Z,25.72
2024-04-15T07:49:08.440Z,25.74
2024-04-15T07:51:35.161Z,25.82
2024-04-15T07:54:01.943Z,25.92
2024-04-15T07:56:28.947Z,25.85
2024-04-15T07:58:55.784Z,25.86
2024-04-15T08:01:22.627Z,26.01
2024-04-15T08:03:49.488Z,26.05
2024-04-15T08:06:17.014Z,26.11
2024-04-15T08:08:43.837Z,26.06
2024-04-15T08:11:10.595Z,26.12
2024-04-15T08:13:37.355Z,26.22
2024-04-15T08:16:04.801Z,26.28
2024-04-15T08:18:31.617Z,26.15
2024-04-15T08:20:58.426Z,25.85
2024-04-15T08:23:25.164Z,25.56
2024-04-15T08:25:53.423Z,25.37
2024-04-15T08:28:20.506Z,25.19
2024-04-15T08:30:47.408Z,24.95
2024-04-15T08:33:14.283Z,24.70
2024-04-15T08:35:41.130Z,24.54
2024-04-15T08:38:07.968Z,24.37
2024-04-15T08:40:35.649Z,24.24
2024-04-15T08:43:04.084Z,24.16
2024-04-15T08:45:31.539Z,24.04
2024-04-15T08:47:58.716Z,23.92
2024-04-15T08:50:26.636Z,23.80
2024-04-15T08:52:55.149Z,23.71
2024-04-15T08:55:23.064Z,23.35
2024-04-15T08:57:50.310Z,23.17
2024-04-15T09:00:18.682Z,23.28
2024-04-15T09:02:46.206Z,23.40
2024-04-15T09:05:13.114Z,23.64
2024-04-15T09:07:40.850Z,24.00
2024-04-15T09:10:08.224Z,24.38
2024-04-15T09:12:44.454Z,24.72
2024-04-15T09:15:11.848Z,25.07
2024-04-15T09:17:39.374Z,25.19
2024-04-15T09:20:08.944Z,25.47
2024-04-15T09:22:36.351Z,25.53
2024-04-15T09:25:05.814Z,25.59
2024-04-15T09:27:32.647Z,25.78
2024-04-15T09:30:02.000Z,26.11
2024-04-15T09:32:29.249Z,26.62
2024-04-15T09:35:00.092Z,27.27
2024-04-15T09:37:27.185Z,28.24
2024-04-15T09:39:54.157Z,29.39
2024-04-15T09:42:23.236Z,30.57
2024-04-15T09:44:50.209Z,31.69
2024-04-15T09:47:19.985Z,32.61
2024-04-15T09:49:47.716Z,33.43
2024-04-15T09:52:22.709Z,34.08
2024-04-15T09:54:58.053Z,34.54
2024-04-15T09:57:24.867Z,35.28
2024-04-15T09:59:58.858Z,35.94
2024-04-15T10:02:58.472Z,36.46
2024-04-15T10:05:25.957Z,36.78
2024-04-15T10:07:59.087Z,37.11
2024-04-15T10:10:27.499Z,37.48
2024-04-15T10:13:00.170Z,37.71
2024-04-15T10:15:30.951Z,37.92
2024-04-15T10:17:58.505Z,38.02
2024-04-15T10:20:35.481Z,38.15
2024-04-15T10:23:08.285Z,38.36
2024-04-15T10:25:35.535Z,38.43
2024-04-15T10:28:02.465Z,38.41
2024-04-15T10:30:30.125Z,38.29
2024-04-15T10:33:04.349Z,38.28
2024-04-15T10:35:33.350Z,38.13
2024-04-15T10:38:00.795Z,37.84
2024-04-15T10:40:32.230Z,37.66
2024-04-15T10:42:59.220Z,37.51
2024-04-15T10:45:29.348Z,37.43
2024-04-15T10:47:56.555Z,37.47
2024-04-15T10:50:26.484Z,37.63
2024-04-15T10:52:53.390Z,37.76
2024-04-15T10:55:22.779Z,37.94
2024-04-15T10:57:50.589Z,38.19
2024-04-15T11:00:18.982Z,38.24
2024-04-15T11:02:47.361Z,38.20
2024-04-15T11:05:15.176Z,38.42
2024-04-15T11:07:42.325Z,38.88
2024-04-15T11:10:10.560Z,39.17
2024-04-15T11:12:37.567Z,39.41
2024-04-15T11:15:07.183Z,39.48
2024-04-15T11:17:35.810Z,39.36
2024-04-15T11:20:06.292Z,39.13
2024-04-15T11:22:33.842Z,38.80
2024-04-15T11:25:01.209Z,38.65
2024-04-15T11:27:29.756Z,38.30
2024-04-15T11:30:02.852Z,37.67
2024-04-15T11:32:32.054Z,37.38
2024-04-15T11:35:00.116Z,37.43
2024-04-15T11:37:26.945Z,37.44
2024-04-15T11:39:54.052Z,37.36
2024-04-15T11:42:27.574Z,37.48
2024-04-15T11:44:54.534Z,37.68
2024-04-15T11:47:21.282Z,37.10
2024-04-15T11:49:48.127Z,36.87
2024-04-15T11:52:18.048Z,36.69
2024-04-15T11:54:45.861Z,36.51
2024-04-15T11:57:12.757Z,36.46
2024-04-15T11:59:40.262Z,36.58
2024-04-15T12:02:07.063Z,36.64
2024-04-15T12:04:34.067Z,36.44
2024-04-15T12:07:01.160Z,36.22
2024-04-15T12:09:29.970Z,36.19
2024-04-15T12:11:56.745Z,36.30
2024-04-15T12:14:23.883Z,36.09
2024-04-15T12:16:50.755Z,35.46
2024-04-15T12:19:17.604Z,35.14
2024-04-15T12:21:44.353Z,35.08
2024-04-15T12:24:11.249Z,34.72
2024-04-15T12:26:38.101Z,34.28
2024-04-15T12:29:05.155Z,34.15
2024-04-15T12:31:31.847Z,33.93
2024-04-15T12:33:58.607Z,33.61
2024-04-15T12:36:25.361Z,33.45
2024-04-15T12:38:53.360Z,33.25
2024-04-15T12:41:20.353Z,33.22
2024-04-15T12:43:49.109Z,33.15
2024-04-15T12:46:15.953Z,33.10
2024-04-15T12:48:43.012Z,33.13
2024-04-15T12:51:10.472Z,33.15
2024-04-15T12:53:37.461Z,33.13
2024-04-15T12:56:05.509Z,33.10
2024-04-15T12:58:32.554Z,33.17
2024-04-15T13:00:59.299Z,33.19
2024-04-15T13:03:26.244Z,33.15
2024-04-15T13:05:53.059Z,33.13
2024-04-15T13:08:19.897Z,33.19
2024-04-15T13:10:46.811Z,33.18
2024-04-15T13:13:13.943Z,33.23
2024-04-15T13:15:40.875Z,33.29
2024-04-15T13:18:07.771Z,33.19
2024-04-15T13:20:34.562Z,33.19
2024-04-15T13:23:01.924Z,33.15
2024-04-15T13:25:30.539Z,33.00
2024-04-15T13:27:58.205Z,32.82
2024-04-15T13:30:25.083Z,32.65
2024-04-15T13:32:52.532Z,32.48
2024-04-15T13:35:19.730Z,32.15
2024-04-15T13:37:46.992Z,31.91
2024-04-15T13:40:13.831Z,31.84
2024-04-15T13:42:40.713Z,32.16
2024-04-15T13:45:07.538Z,32.48
2024-04-15T13:47:34.396Z,32.50
2024-04-15T13:50:01.365Z,32.31
2024-04-15T13:52:28.528Z,32.04
2024-04-15T13:54:55.284Z,31.71
2024-04-15T13:57:21.979Z,31.36
2024-04-15T13:59:48.887Z,31.06
2024-04-15T14:02:15.879Z,30.73
2024-04-15T14:04:42.998Z,30.48
2024-04-15T14:07:09.916Z,30.16
2024-04-15T14:09:36.796Z,29.89
2024-04-15T14:12:04.001Z,29.66
2024-04-15T14:14:33.519Z,29.43
2024-04-15T14:17:02.093Z,29.22
2024-04-15T14:19:29.865Z,29.05
2024-04-15T14:21:56.744Z,28.77
2024-04-15T14:24:23.500Z,28.59
2024-04-15T14:26:50.239Z,28.39
2024-04-15T14:29:18.387Z,28.21
2024-04-15T14:31:47.404Z,28.11
2024-04-15T14:34:14.245Z,28.01
2024-04-15T14:36:41.034Z,27.93
2024-04-15T14:39:12.155Z,27.83
2024-04-15T14:41:39.034Z,27.74
2024-04-15T14:46:32.911Z,27.59
2024-04-15T14:48:59.748Z,27.46
2024-04-15T14:51:26.539Z,27.39
2024-04-15T14:53:53.325Z,27.30
2024-04-15T14:56:21.205Z,27.19
2024-04-15T14:58:48.241Z,27.10
2024-04-15T15:01:15.587Z,27.02
2024-04-15T15:03:42.556Z,27.00
2024-04-15T15:06:09.605Z,26.95
2024-04-15T15:08:37.841Z,26.92
2024-04-15T15:11:09.170Z,26.82
2024-04-15T15:13:38.306Z,26.81
2024-04-15T15:16:05.136Z,26.79
2024-04-15T15:18:31.985Z,26.72
2024-04-15T15:21:04.688Z,26.63
2024-04-15T15:23:38.871Z,26.58
2024-04-15T15:26:07.096Z,26.53
2024-04-15T15:28:33.934Z,26.49
2024-04-15T15:31:00.699Z,26.47
2024-04-15T15:33:27.566Z,26.44
2024-04-15T15:35:54.369Z,26.42
2024-04-15T15:38:21.109Z,26.33
2024-04-15T15:40:47.837Z,26.28
2024-04-15T15:43:14.723Z,26.25
2024-04-15T15:45:41.525Z,26.22
2024-04-15T15:48:08.423Z,26.17
2024-04-15T15:50:35.329Z,26.12
2024-04-15T15:53:02.902Z,26.07
2024-04-15T15:55:31.005Z,26.04
2024-04-15T15:57:58.229Z,26.03
2024-04-15T16:00:28.534Z,26.00
2024-04-15T16:02:55.790Z,25.96
2024-04-15T16:05:25.331Z,25.87
2024-04-15T16:07:57.789Z,25.79
2024-04-15T16:10:24.699Z,25.70
2024-04-15T16:12:51.546Z,25.62
2024-04-15T16:15:18.350Z,25.59
2024-04-15T16:17:45.160Z,25.51
2024-04-15T16:20:12.164Z,25.40
2024-04-15T16:22:38.876Z,25.35
2024-04-15T16:25:05.958Z,25.22
2024-04-15T16:27:32.657Z,25.12
2024-04-15T16:29:59.383Z,25.03
2024-04-15T16:32:26.401Z,24.96
2024-04-15T16:34:54.340Z,24.89
2024-04-15T16:37:21.230Z,24.81
2024-04-15T16:39:48.029Z,24.74
2024-04-15T16:42:14.769Z,24.68
2024-04-15T16:44:41.501Z,24.59
2024-04-15T16:47:08.540Z,24.53
2024-04-15T16:49:35.425Z,24.44
2024-04-15T16:52:02.634Z,24.36
2024-04-15T16:54:29.382Z,24.28
2024-04-15T16:56:56.149Z,24.19
2024-04-15T16:59:22.933Z,24.12
2024-04-15T17:01:49.751Z,24.05
2024-04-15T17:04:17.655Z,23.98
2024-04-15T17:06:44.521Z,23.95
2024-04-15T17:09:11.292Z,23.90
2024-04-15T17:11:39.171Z,23.86
2024-04-15T17:14:06.073Z,23.79
2024-04-15T17:16:32.931Z,23.76
2024-04-15T17:18:59.817Z,23.77
2024-04-15T17:21:26.912Z,23.72
2024-04-15T17:23:53.672Z,23.64
2024-04-15T17:26:20.435Z,23.58
2024-04-15T17:28:47.295Z,23.51
2024-04-15T17:31:14.136Z,23.46
2024-04-15T17:33:41.083Z,23.38
2024-04-15T17:36:08.104Z,23.34
2024-04-15T17:38:34.956Z,23.28
2024-04-15T17:41:02.380Z,23.23
2024-04-15T17:43:29.236Z,23.16
2024-04-15T17:45:56.332Z,23.09
2024-04-15T17:48:23.245Z,23.04
2024-04-15T17:50:49.948Z,22.98
2024-04-15T17:53:18.011Z,22.91
2024-04-15T17:55:45.252Z,22.85
2024-04-15T17:58:12.713Z,22.80
2024-04-15T18:00:39.486Z,22.75
2024-04-15T18:03:06.466Z,22.76
2024-04-15T18:05:33.322Z,22.73
2024-04-15T18:08:00.188Z,22.68
2024-04-15T18:10:27.160Z,22.63
2024-04-15T18:12:54.900Z,22.59
2024-04-15T18:15:22.667Z,22.59
2024-04-15T18:17:49.534Z,22.57
2024-04-15T18:20:16.418Z,22.55
2024-04-15T18:22:43.100Z,22.49
2024-04-15T18:25:10.618Z,22.46
2024-04-15T18:27:38.263Z,22.47
2024-04-15T18:30:05.940Z,22.51
2024-04-15T18:32:32.920Z,22.56
2024-04-15T18:34:59.791Z,22.57
2024-04-15T18:37:26.570Z,22.57
2024-04-15T18:39:53.344Z,22.57
2024-04-15T18:42:20.253Z,22.58
2024-04-15T18:44:47.351Z,22.57
2024-04-15T18:47:14.164Z,22.57
2024-04-15T18:49:40.875Z,22.55
2024-04-15T18:52:07.710Z,22.51
2024-04-15T18:54:34.527Z,22.49
2024-04-15T18:57:01.321Z,22.40
2024-04-15T18:59:28.122Z,22.33
2024-04-15T19:01:54.818Z,22.27
2024-04-15T19:04:21.643Z,22.21
2024-04-15T19:06:48.296Z,22.16
2024-04-15T19:09:15.147Z,22.10
2024-04-15T19:11:41.817Z,22.04
2024-04-15T19:14:08.511Z,21.96
2024-04-15T19:16:35.365Z,21.89
2024-04-15T19:19:03.217Z,21.79
2024-04-15T19:21:30.068Z,21.68
2024-04-15T19:23:57.051Z,21.55
2024-04-15T19:26:23.869Z,21.45
2024-04-15T19:28:50.627Z,21.33
2024-04-15T19:31:26.944Z,21.23
2024-04-15T19:33:56.949Z,21.11
2024-04-15T19:36:24.122Z,21.00
2024-04-15T19:38:50.871Z,20.90
2024-04-15T19:41:17.790Z,20.86
2024-04-15T19:43:44.627Z,20.83
2024-04-15T19:46:11.584Z,20.79
2024-04-15T19:48:38.358Z,20.82
2024-04-15T19:51:06.403Z,20.83
2024-04-15T19:53:33.255Z,20.87
2024-04-15T19:56:00.063Z,20.94
2024-04-15T19:58:27.984Z,21.01
2024-04-15T20:00:54.967Z,21.15
2024-04-15T20:03:21.896Z,21.24
2024-04-15T20:05:48.791Z,21.30
2024-04-15T20:08:21.317Z,21.38
2024-04-15T20:10:48.928Z,21.47
2024-04-15T20:13:15.855Z,21.54
2024-04-15T20:15:42.670Z,21.57
2024-04-15T20:18:10.855Z,21.60
2024-04-15T20:20:43.934Z,21.61
2024-04-15T20:23:12.358Z,21.66
2024-04-15T20:25:39.694Z,21.68
2024-04-15T20:28:07.003Z,21.69
2024-04-15T20:30:33.943Z,21.71
2024-04-15T20:33:00.877Z,21.72
2024-04-15T20:35:27.838Z,21.71
2024-04-15T20:37:54.679Z,21.71
2024-04-15T20:40:32.428Z,21.71
2024-04-15T20:43:02.735Z,21.68
2024-04-15T20:45:29.713Z,21.69
2024-04-15T20:47:56.915Z,21.70
2024-04-15T20:50:23.883Z,21.69
2024-04-15T20:52:50.944Z,21.69
2024-04-15T20:55:19.232Z,21.68
2024-04-15T20:57:45.927Z,21.65
2024-04-15T21:00:12.821Z,21.57
2024-04-15T21:02:39.709Z,21.47
2024-04-15T21:05:07.121Z,21.39
2024-04-15T21:07:34.804Z,21.30
2024-04-15T21:10:02.646Z,21.22
2024-04-15T21:12:30.163Z,21.12
2024-04-15T21:14:57.795Z,21.01
2024-04-15T21:17:25.451Z,20.90
2024-04-15T21:19:52.972Z,20.78
2024-04-15T21:22:20.548Z,20.65
2024-04-15T21:24:49.434Z,20.54
2024-04-15T21:27:16.972Z,20.41
2024-04-15T21:29:44.627Z,20.28
2024-04-15T21:32:12.039Z,20.17
2024-04-15T21:34:39.637Z,20.05
2024-04-15T21:37:08.605Z,19.94
2024-04-15T21:39:36.209Z,19.84
2024-04-15T21:42:03.894Z,19.79
2024-04-15T21:44:31.865Z,19.83
2024-04-15T21:46:59.838Z,19.87
2024-04-15T21:49:27.584Z,19.90
2024-04-15T21:51:55.309Z,19.91
2024-04-15T21:54:22.967Z,19.91
2024-04-15T21:56:50.543Z,19.90
2024-04-15T21:59:18.074Z,19.85
2024-04-15T22:01:45.793Z,19.80
2024-04-15T22:04:13.398Z,19.81
2024-04-15T22:06:40.254Z,19.86
2024-04-15T22:09:07.013Z,19.87
2024-04-15T22:11:33.855Z,19.87
2024-04-15T22:14:00.713Z,19.89
2024-04-15T22:16:27.631Z,19.87
2024-04-15T22:18:54.444Z,19.89
2024-04-15T22:21:21.824Z,19.89
2024-04-15T22:23:48.885Z,19.86
2024-04-15T22:26:15.726Z,19.84
2024-04-15T22:28:42.516Z,19.88
2024-04-15T22:31:09.293Z,19.96
2024-04-15T22:33:36.047Z,19.98
2024-04-15T22:36:03.104Z,19.86
2024-04-15T22:38:33.792Z,19.72
2024-04-15T22:41:00.583Z,19.62
2024-04-15T22:43:27.668Z,19.54
2024-04-15T22:45:54.456Z,19.46
2024-04-15T22:48:22.177Z,19.37
2024-04-15T22:50:48.923Z,19.31
2024-04-15T22:53:15.668Z,19.27
2024-04-15T22:55:42.395Z,19.23
2024-04-15T22:58:09.128Z,19.24
2024-04-15T23:00:36.004Z,19.32
2024-04-15T23:03:03.022Z,19.42
2024-04-15T23:05:30.041Z,19.49
2024-04-15T23:07:58.748Z,19.52
2024-04-15T23:10:25.505Z,19.64
2024-04-15T23:12:52.240Z,19.76
2024-04-15T23:15:19.069Z,19.87
2024-04-15T23:17:45.894Z,19.91
2024-04-15T23:20:12.734Z,19.95
2024-04-15T23:22:43.593Z,19.95
2024-04-15T23:25:10.324Z,19.84
2024-04-15T23:27:37.593Z,19.65
2024-04-15T23:30:05.408Z,19.46
2024-04-15T23:32:32.385Z,19.29
2024-04-15T23:34:59.193Z,19.06
2024-04-15T23:37:26.022Z,18.90
2024-04-15T23:39:53.760Z,18.73
2024-04-15T23:42:20.381Z,18.62
2024-04-15T23:45:06.384Z,18.51
2024-04-15T23:47:51.696Z,18.42
2024-04-15T23:50:37.270Z,18.33
2024-04-15T23:53:22.425Z,18.25
2024-04-15T23:56:07.755Z,18.20
2024-04-15T23:58:36.283Z,18.14
